Kahlotus, Washington
Current Conditions -  °F | °C
As of 8:53 PM on Sunday 21 Dec 2014 (Local Time) from KPSC Reporting Station
Overcast Overcast  
Wind Chill: 50°   Ceiling: 11000
Heat Index: 50°   Visibility: 10mi
Dew Point: 43°   Wind: 10mph
Humidity: 77%   Direction: 230°SW
Pressure: 30.05"   Gusts: NA
Location:  46.64°N, 118.56°W
Report Text: KPSC 220453Z 23009KT 10SM OVC110 10/06 A3005 RMK AO2 SLP177 T01000061
Loading
Personal Weather Stations






























Interactive Weather Map New forecast layout! Learn more

10-Day Weather Forecast

Advertisements
Track Severe Weather on mobile